sensor_id;sensor_type;location;lat;lon;timestamp;temperature;humidity
15997;DHT22;8103;51.340;12.326;2022-10-17T00:01:02;15.40;99.90
15997;DHT22;8103;51.340;12.326;2022-10-17T00:03:33;15.50;99.90
15997;DHT22;8103;51.340;12.326;2022-10-17T00:06:11;15.50;99.90
15997;DHT22;8103;51.340;12.326;2022-10-17T00:08:41;15.50;99.90
15997;DHT22;8103;51.340;12.326;2022-10-17T00:11:15;15.50;99.90
15997;DHT22;8103;51.340;12.326;2022-10-17T00:13:47;15.60;99.90
15997;DHT22;8103;51.340;12.326;2022-10-17T00:16:28;15.60;99.90
15997;DHT22;8103;51.340;12.326;2022-10-17T00:18:58;15.60;99.90
15997;DHT22;8103;51.340;12.326;2022-10-17T00:21:26;15.70;99.90
15997;DHT22;8103;51.340;12.326;2022-10-17T00:23:53;15.70;99.90
15997;DHT22;8103;51.340;12.326;2022-10-17T00:26:20;15.80;99.90
15997;DHT22;8103;51.340;12.326;2022-10-17T00:28:49;15.80;99.90
15997;DHT22;8103;51.340;12.326;2022-10-17T00:31:19;15.80;99.90
15997;DHT22;8103;51.340;12.326;2022-10-17T00:33:47;15.90;99.90
15997;DHT22;8103;51.340;12.326;2022-10-17T00:36:17;15.90;99.90
15997;DHT22;8103;51.340;12.326;2022-10-17T00:38:52;15.90;99.90
15997;DHT22;8103;51.340;12.326;2022-10-17T00:41:28;15.90;99.90
15997;DHT22;8103;51.340;12.326;2022-10-17T00:44:03;15.90;99.90
15997;DHT22;8103;51.340;12.326;2022-10-17T00:46:36;15.90;99.90
15997;DHT22;8103;51.340;12.326;2022-10-17T00:49:07;15.90;99.90
15997;DHT22;8103;51.340;12.326;2022-10-17T00:52:02;15.80;99.90
15997;DHT22;8103;51.340;12.326;2022-10-17T00:54:37;15.80;99.90
15997;DHT22;8103;51.340;12.326;2022-10-17T00:57:09;15.70;99.90
15997;DHT22;8103;51.340;12.326;2022-10-17T00:59:38;15.70;99.90
15997;DHT22;8103;51.340;12.326;2022-10-17T01:02:13;15.70;99.90
15997;DHT22;8103;51.340;12.326;2022-10-17T01:04:45;15.60;99.90
15997;DHT22;8103;51.340;12.326;2022-10-17T01:07:14;15.60;99.90
15997;DHT22;8103;51.340;12.326;2022-10-17T01:09:42;15.60;99.90
15997;DHT22;8103;51.340;12.326;2022-10-17T01:23:53;15.40;99.90
15997;DHT22;8103;51.340;12.326;2022-10-17T01:26:57;15.30;99.90
15997;DHT22;8103;51.340;12.326;2022-10-17T01:32:55;15.20;99.90
15997;DHT22;8103;51.340;12.326;2022-10-17T01:35:38;15.20;99.90
15997;DHT22;8103;51.340;12.326;2022-10-17T01:38:31;15.20;99.90
15997;DHT22;8103;51.340;12.326;2022-10-17T01:41:14;15.20;99.90
15997;DHT22;8103;51.340;12.326;2022-10-17T01:46:51;15.30;99.90
15997;DHT22;8103;51.340;12.326;2022-10-17T01:49:25;15.30;99.90
15997;DHT22;8103;51.340;12.326;2022-10-17T01:52:12;15.40;99.90
15997;DHT22;8103;51.340;12.326;2022-10-17T01:54:52;15.40;99.90
15997;DHT22;8103;51.340;12.326;2022-10-17T01:57:34;15.50;99.90
15997;DHT22;8103;51.340;12.326;2022-10-17T02:00:10;15.60;99.90
15997;DHT22;8103;51.340;12.326;2022-10-17T02:02:46;15.60;99.90
15997;DHT22;8103;51.340;12.326;2022-10-17T02:05:17;15.60;99.90
15997;DHT22;8103;51.340;12.326;2022-10-17T02:07:50;15.70;99.90
15997;DHT22;8103;51.340;12.326;2022-10-17T02:10:24;15.70;99.90
15997;DHT22;8103;51.340;12.326;2022-10-17T02:13:24;15.80;99.90
15997;DHT22;8103;51.340;12.326;2022-10-17T02:30:53;15.80;99.90
15997;DHT22;8103;51.340;12.326;2022-10-17T02:33:41;15.80;99.90
15997;DHT22;8103;51.340;12.326;2022-10-17T02:36:25;15.80;99.90
15997;DHT22;8103;51.340;12.326;2022-10-17T02:38:57;15.90;99.90
15997;DHT22;8103;51.340;12.326;2022-10-17T02:41:27;15.90;99.90
15997;DHT22;8103;51.340;12.326;2022-10-17T02:43:57;15.90;99.90
15997;DHT22;8103;51.340;12.326;2022-10-17T02:46:27;15.90;99.90
15997;DHT22;8103;51.340;12.326;2022-10-17T02:52:13;16.00;99.90
15997;DHT22;8103;51.340;12.326;2022-10-17T02:54:54;16.00;99.90
15997;DHT22;8103;51.340;12.326;2022-10-17T02:57:43;16.00;99.90
15997;DHT22;8103;51.340;12.326;2022-10-17T03:00:17;16.00;99.90
15997;DHT22;8103;51.340;12.326;2022-10-17T03:02:47;16.00;99.90
15997;DHT22;8103;51.340;12.326;2022-10-17T03:05:19;16.00;99.90
15997;DHT22;8103;51.340;12.326;2022-10-17T03:07:52;16.00;99.90
15997;DHT22;8103;51.340;12.326;2022-10-17T03:10:20;16.00;99.90
15997;DHT22;8103;51.340;12.326;2022-10-17T03:12:48;16.00;99.90
15997;DHT22;8103;51.340;12.326;2022-10-17T03:15:15;16.00;99.90
15997;DHT22;8103;51.340;12.326;2022-10-17T03:17:42;16.00;99.90
15997;DHT22;8103;51.340;12.326;2022-10-17T03:20:14;16.00;99.90
15997;DHT22;8103;51.340;12.326;2022-10-17T03:22:41;15.90;99.90
15997;DHT22;8103;51.340;12.326;2022-10-17T03:25:08;15.90;99.90
15997;DHT22;8103;51.340;12.326;2022-10-17T03:27:35;15.80;99.90
15997;DHT22;8103;51.340;12.326;2022-10-17T03:30:03;15.80;99.90
15997;DHT22;8103;51.340;12.326;2022-10-17T03:32:32;15.80;99.90
15997;DHT22;8103;51.340;12.326;2022-10-17T03:35:00;15.70;99.90
15997;DHT22;8103;51.340;12.326;2022-10-17T03:37:27;15.70;99.90
15997;DHT22;8103;51.340;12.326;2022-10-17T03:39:55;15.60;99.90
15997;DHT22;8103;51.340;12.326;2022-10-17T03:42:22;15.60;99.90
15997;DHT22;8103;51.340;12.326;2022-10-17T03:44:49;15.60;99.90
15997;DHT22;8103;51.340;12.326;2022-10-17T03:47:16;15.50;99.90
15997;DHT22;8103;51.340;12.326;2022-10-17T03:49:47;15.60;99.90
15997;DHT22;8103;51.340;12.326;2022-10-17T03:52:25;15.50;99.90
15997;DHT22;8103;51.340;12.326;2022-10-17T03:54:52;15.50;99.90
15997;DHT22;8103;51.340;12.326;2022-10-17T03:57:19;15.50;99.90
15997;DHT22;8103;51.340;12.326;2022-10-17T03:59:46;15.50;99.90
15997;DHT22;8103;51.340;12.326;2022-10-17T04:02:16;15.40;99.90
15997;DHT22;8103;51.340;12.326;2022-10-17T04:04:43;15.40;99.90
15997;DHT22;8103;51.340;12.326;2022-10-17T04:07:10;15.40;99.90
15997;DHT22;8103;51.340;12.326;2022-10-17T04:09:36;15.40;99.90
15997;DHT22;8103;51.340;12.326;2022-10-17T04:12:04;15.30;99.90
15997;DHT22;8103;51.340;12.326;2022-10-17T04:14:31;15.30;99.90
15997;DHT22;8103;51.340;12.326;2022-10-17T04:16:58;15.30;99.90
15997;DHT22;8103;51.340;12.326;2022-10-17T04:19:25;15.30;99.90
15997;DHT22;8103;51.340;12.326;2022-10-17T04:21:52;15.30;99.90
15997;DHT22;8103;51.340;12.326;2022-10-17T04:24:19;15.40;99.90
15997;DHT22;8103;51.340;12.326;2022-10-17T04:31:06;15.40;99.90
15997;DHT22;8103;51.340;12.326;2022-10-17T04:33:35;15.40;99.90
15997;DHT22;8103;51.340;12.326;2022-10-17T04:36:04;15.40;99.90
15997;DHT22;8103;51.340;12.326;2022-10-17T04:38:33;15.30;99.90
15997;DHT22;8103;51.340;12.326;2022-10-17T04:41:02;15.30;99.90
15997;DHT22;8103;51.340;12.326;2022-10-17T04:43:35;15.30;99.90
15997;DHT22;8103;51.340;12.326;2022-10-17T04:46:07;15.30;99.90
15997;DHT22;8103;51.340;12.326;2022-10-17T04:48:37;15.20;99.90
15997;DHT22;8103;51.340;12.326;2022-10-17T04:51:08;15.20;99.90
15997;DHT22;8103;51.340;12.326;2022-10-17T04:53:38;15.20;99.90
15997;DHT22;8103;51.340;12.326;2022-10-17T04:56:12;15.20;99.90
15997;DHT22;8103;51.340;12.326;2022-10-17T04:58:43;15.20;99.90
15997;DHT22;8103;51.340;12.326;2022-10-17T05:01:13;15.20;99.90
15997;DHT22;8103;51.340;12.326;2022-10-17T05:03:42;15.10;99.90
15997;DHT22;8103;51.340;12.326;2022-10-17T05:06:14;15.10;99.90
15997;DHT22;8103;51.340;12.326;2022-10-17T05:08:43;15.10;99.90
15997;DHT22;8103;51.340;12.326;2022-10-17T05:11:20;15.10;99.90
15997;DHT22;8103;51.340;12.326;2022-10-17T05:13:53;15.00;99.90
15997;DHT22;8103;51.340;12.326;2022-10-17T05:16:25;15.00;99.90
15997;DHT22;8103;51.340;12.326;2022-10-17T05:18:55;15.00;99.90
15997;DHT22;8103;51.340;12.326;2022-10-17T05:21:24;15.00;99.90
15997;DHT22;8103;51.340;12.326;2022-10-17T05:23:53;15.10;99.90
15997;DHT22;8103;51.340;12.326;2022-10-17T05:26:21;15.10;99.90
15997;DHT22;8103;51.340;12.326;2022-10-17T05:28:49;15.10;99.90
15997;DHT22;8103;51.340;12.326;2022-10-17T05:31:18;15.10;99.90
15997;DHT22;8103;51.340;12.326;2022-10-17T05:33:45;15.10;99.90
15997;DHT22;8103;51.340;12.326;2022-10-17T05:36:12;15.10;99.90
15997;DHT22;8103;51.340;12.326;2022-10-17T05:38:39;15.10;99.90
15997;DHT22;8103;51.340;12.326;2022-10-17T05:41:06;15.10;99.90
15997;DHT22;8103;51.340;12.326;2022-10-17T05:43:33;15.10;99.90
15997;DHT22;8103;51.340;12.326;2022-10-17T05:46:05;15.10;99.90
15997;DHT22;8103;51.340;12.326;2022-10-17T05:48:33;15.10;99.90
15997;DHT22;8103;51.340;12.326;2022-10-17T05:51:03;15.20;99.90
15997;DHT22;8103;51.340;12.326;2022-10-17T05:53:35;15.20;99.90
15997;DHT22;8103;51.340;12.326;2022-10-17T05:56:07;15.10;99.90
15997;DHT22;8103;51.340;12.326;2022-10-17T05:58:40;15.20;99.90
15997;DHT22;8103;51.340;12.326;2022-10-17T06:01:19;15.20;99.90
15997;DHT22;8103;51.340;12.326;2022-10-17T06:03:46;15.20;99.90
15997;DHT22;8103;51.340;12.326;2022-10-17T06:06:14;15.20;99.90
15997;DHT22;8103;51.340;12.326;2022-10-17T06:08:42;15.20;99.90
15997;DHT22;8103;51.340;12.326;2022-10-17T06:11:10;15.30;99.90
15997;DHT22;8103;51.340;12.326;2022-10-17T06:13:38;15.40;99.90
15997;DHT22;8103;51.340;12.326;2022-10-17T06:16:06;15.40;99.90
15997;DHT22;8103;51.340;12.326;2022-10-17T06:18:33;15.40;99.90
15997;DHT22;8103;51.340;12.326;2022-10-17T06:21:04;15.50;99.90
15997;DHT22;8103;51.340;12.326;2022-10-17T06:23:36;15.50;99.90
15997;DHT22;8103;51.340;12.326;2022-10-17T06:26:04;15.60;99.90
15997;DHT22;8103;51.340;12.326;2022-10-17T06:28:34;15.70;99.90
15997;DHT22;8103;51.340;12.326;2022-10-17T06:31:06;15.70;99.90
15997;DHT22;8103;51.340;12.326;2022-10-17T06:33:36;15.70;99.90
15997;DHT22;8103;51.340;12.326;2022-10-17T06:36:05;15.80;99.90
15997;DHT22;8103;51.340;12.326;2022-10-17T06:38:35;15.80;99.90
15997;DHT22;8103;51.340;12.326;2022-10-17T06:41:08;15.90;99.90
15997;DHT22;8103;51.340;12.326;2022-10-17T06:43:41;15.90;99.90
15997;DHT22;8103;51.340;12.326;2022-10-17T06:46:13;16.00;99.90
15997;DHT22;8103;51.340;12.326;2022-10-17T06:48:43;16.00;99.90
15997;DHT22;8103;51.340;12.326;2022-10-17T06:51:10;16.10;99.90
15997;DHT22;8103;51.340;12.326;2022-10-17T06:53:38;16.20;99.90
15997;DHT22;8103;51.340;12.326;2022-10-17T06:56:07;16.20;99.90
15997;DHT22;8103;51.340;12.326;2022-10-17T06:58:37;16.20;99.90
15997;DHT22;8103;51.340;12.326;2022-10-17T07:01:12;16.30;99.90
15997;DHT22;8103;51.340;12.326;2022-10-17T07:03:39;16.40;99.90
15997;DHT22;8103;51.340;12.326;2022-10-17T07:06:07;16.50;99.90
15997;DHT22;8103;51.340;12.326;2022-10-17T07:08:36;16.60;99.90
15997;DHT22;8103;51.340;12.326;2022-10-17T07:11:14;16.70;99.90
15997;DHT22;8103;51.340;12.326;2022-10-17T07:13:43;16.80;99.90
15997;DHT22;8103;51.340;12.326;2022-10-17T07:16:10;16.90;99.90
15997;DHT22;8103;51.340;12.326;2022-10-17T07:18:39;17.00;99.90
15997;DHT22;8103;51.340;12.326;2022-10-17T07:21:06;17.00;99.90
15997;DHT22;8103;51.340;12.326;2022-10-17T07:23:35;17.20;99.90
15997;DHT22;8103;51.340;12.326;2022-10-17T07:26:05;17.20;99.90
15997;DHT22;8103;51.340;12.326;2022-10-17T07:28:36;17.30;99.90
15997;DHT22;8103;51.340;12.326;2022-10-17T07:31:13;17.40;99.90
15997;DHT22;8103;51.340;12.326;2022-10-17T07:33:42;17.50;99.90
15997;DHT22;8103;51.340;12.326;2022-10-17T07:36:16;17.60;99.90
15997;DHT22;8103;51.340;12.326;2022-10-17T07:38:43;17.60;99.90
15997;DHT22;8103;51.340;12.326;2022-10-17T07:41:11;17.80;99.90
15997;DHT22;8103;51.340;12.326;2022-10-17T07:43:41;17.90;99.90
15997;DHT22;8103;51.340;12.326;2022-10-17T07:46:08;18.00;99.90
15997;DHT22;8103;51.340;12.326;2022-10-17T07:48:38;18.10;99.90
15997;DHT22;8103;51.340;12.326;2022-10-17T07:51:07;18.20;99.90
15997;DHT22;8103;51.340;12.326;2022-10-17T07:53:37;18.20;99.90
15997;DHT22;8103;51.340;12.326;2022-10-17T07:56:07;18.30;99.90
15997;DHT22;8103;51.340;12.326;2022-10-17T07:58:37;18.30;99.90
15997;DHT22;8103;51.340;12.326;2022-10-17T08:01:07;18.30;99.90
15997;DHT22;8103;51.340;12.326;2022-10-17T08:03:42;18.30;99.90
15997;DHT22;8103;51.340;12.326;2022-10-17T08:06:11;18.30;99.90
15997;DHT22;8103;51.340;12.326;2022-10-17T08:08:38;18.20;99.90
15997;DHT22;8103;51.340;12.326;2022-10-17T08:11:09;18.20;99.90
15997;DHT22;8103;51.340;12.326;2022-10-17T08:13:38;18.20;99.90
15997;DHT22;8103;51.340;12.326;2022-10-17T08:16:09;18.20;99.90
15997;DHT22;8103;51.340;12.326;2022-10-17T08:18:41;18.20;99.90
15997;DHT22;8103;51.340;12.326;2022-10-17T08:21:09;18.20;99.90
15997;DHT22;8103;51.340;12.326;2022-10-17T08:23:38;18.30;99.90
15997;DHT22;8103;51.340;12.326;2022-10-17T08:26:07;18.40;99.90
15997;DHT22;8103;51.340;12.326;2022-10-17T08:28:37;18.50;99.90
15997;DHT22;8103;51.340;12.326;2022-10-17T08:31:07;18.50;99.90
15997;DHT22;8103;51.340;12.326;2022-10-17T08:33:37;18.70;99.90
15997;DHT22;8103;51.340;12.326;2022-10-17T08:36:05;18.70;99.90
15997;DHT22;8103;51.340;12.326;2022-10-17T08:38:35;18.80;99.90
15997;DHT22;8103;51.340;12.326;2022-10-17T08:41:14;18.90;99.90
15997;DHT22;8103;51.340;12.326;2022-10-17T08:44:18;19.00;99.90
15997;DHT22;8103;51.340;12.326;2022-10-17T08:47:01;19.20;99.90
15997;DHT22;8103;51.340;12.326;2022-10-17T08:49:50;19.50;99.90
15997;DHT22;8103;51.340;12.326;2022-10-17T08:55:38;21.00;98.50
15997;DHT22;8103;51.340;12.326;2022-10-17T09:10:19;23.30;90.90
15997;DHT22;8103;51.340;12.326;2022-10-17T09:13:15;23.10;90.50
15997;DHT22;8103;51.340;12.326;2022-10-17T09:16:06;23.00;90.80
15997;DHT22;8103;51.340;12.326;2022-10-17T09:18:40;23.60;90.40
15997;DHT22;8103;51.340;12.326;2022-10-17T09:21:45;24.50;85.60
15997;DHT22;8103;51.340;12.326;2022-10-17T09:24:58;25.10;81.90
15997;DHT22;8103;51.340;12.326;2022-10-17T09:27:46;25.10;80.40
15997;DHT22;8103;51.340;12.326;2022-10-17T09:30:20;25.80;78.00
15997;DHT22;8103;51.340;12.326;2022-10-17T09:33:22;26.60;73.20
15997;DHT22;8103;51.340;12.326;2022-10-17T09:39:15;28.80;61.00
15997;DHT22;8103;51.340;12.326;2022-10-17T09:41:49;29.70;59.20
15997;DHT22;8103;51.340;12.326;2022-10-17T09:44:34;31.00;55.70
15997;DHT22;8103;51.340;12.326;2022-10-17T09:49:57;32.00;51.70
15997;DHT22;8103;51.340;12.326;2022-10-17T09:52:35;32.90;48.90
15997;DHT22;8103;51.340;12.326;2022-10-17T09:58:06;34.20;44.80
15997;DHT22;8103;51.340;12.326;2022-10-17T10:00:44;34.80;44.00
15997;DHT22;8103;51.340;12.326;2022-10-17T10:06:05;36.20;41.30
15997;DHT22;8103;51.340;12.326;2022-10-17T10:08:52;37.00;38.20
15997;DHT22;8103;51.340;12.326;2022-10-17T10:11:25;37.30;38.10
15997;DHT22;8103;51.340;12.326;2022-10-17T10:17:03;37.10;37.40
15997;DHT22;8103;51.340;12.326;2022-10-17T10:19:34;36.80;37.30
15997;DHT22;8103;51.340;12.326;2022-10-17T10:22:13;36.50;37.70
15997;DHT22;8103;51.340;12.326;2022-10-17T10:24:44;36.40;37.60
15997;DHT22;8103;51.340;12.326;2022-10-17T10:27:14;36.50;37.60
15997;DHT22;8103;51.340;12.326;2022-10-17T10:29:51;36.90;37.30
15997;DHT22;8103;51.340;12.326;2022-10-17T10:32:27;37.70;36.20
15997;DHT22;8103;51.340;12.326;2022-10-17T10:35:06;37.60;35.50
15997;DHT22;8103;51.340;12.326;2022-10-17T10:37:50;36.30;37.30
15997;DHT22;8103;51.340;12.326;2022-10-17T10:40:34;35.40;39.00
15997;DHT22;8103;51.340;12.326;2022-10-17T10:43:29;34.90;39.80
15997;DHT22;8103;51.340;12.326;2022-10-17T10:46:22;34.30;41.10
15997;DHT22;8103;51.340;12.326;2022-10-17T10:48:56;34.70;40.80
15997;DHT22;8103;51.340;12.326;2022-10-17T10:51:36;35.10;39.80
15997;DHT22;8103;51.340;12.326;2022-10-17T10:54:17;36.00;38.20
15997;DHT22;8103;51.340;12.326;2022-10-17T10:56:57;35.30;38.90
15997;DHT22;8103;51.340;12.326;2022-10-17T11:02:39;33.00;43.10
15997;DHT22;8103;51.340;12.326;2022-10-17T11:05:40;32.60;44.20
15997;DHT22;8103;51.340;12.326;2022-10-17T11:08:34;33.10;43.40
15997;DHT22;8103;51.340;12.326;2022-10-17T11:11:42;34.10;42.30
15997;DHT22;8103;51.340;12.326;2022-10-17T11:14:36;35.90;39.70
15997;DHT22;8103;51.340;12.326;2022-10-17T11:17:35;36.80;38.10
15997;DHT22;8103;51.340;12.326;2022-10-17T11:22:43;35.80;38.80
15997;DHT22;8103;51.340;12.326;2022-10-17T11:28:14;34.40;41.20
15997;DHT22;8103;51.340;12.326;2022-10-17T11:31:06;34.70;41.20
15997;DHT22;8103;51.340;12.326;2022-10-17T11:34:05;35.10;40.30
15997;DHT22;8103;51.340;12.326;2022-10-17T11:36:36;35.20;39.40
15997;DHT22;8103;51.340;12.326;2022-10-17T11:39:14;35.10;39.20
15997;DHT22;8103;51.340;12.326;2022-10-17T11:41:47;34.80;39.70
15997;DHT22;8103;51.340;12.326;2022-10-17T11:44:25;34.30;40.70
15997;DHT22;8103;51.340;12.326;2022-10-17T11:47:05;34.10;41.10
15997;DHT22;8103;51.340;12.326;2022-10-17T11:49:46;34.00;41.30
15997;DHT22;8103;51.340;12.326;2022-10-17T11:52:37;34.30;41.20
15997;DHT22;8103;51.340;12.326;2022-10-17T11:55:28;35.50;39.70
15997;DHT22;8103;51.340;12.326;2022-10-17T12:04:19;39.00;34.50
15997;DHT22;8103;51.340;12.326;2022-10-17T12:10:33;39.10;34.00
15997;DHT22;8103;51.340;12.326;2022-10-17T12:15:54;37.60;35.30
15997;DHT22;8103;51.340;12.326;2022-10-17T12:18:24;36.60;36.60
15997;DHT22;8103;51.340;12.326;2022-10-17T12:20:56;36.00;37.90
15997;DHT22;8103;51.340;12.326;2022-10-17T12:23:28;35.70;38.50
15997;DHT22;8103;51.340;12.326;2022-10-17T12:26:02;35.70;38.50
15997;DHT22;8103;51.340;12.326;2022-10-17T12:31:09;33.80;41.10
15997;DHT22;8103;51.340;12.326;2022-10-17T12:34:03;33.10;42.40
15997;DHT22;8103;51.340;12.326;2022-10-17T12:49:51;38.10;35.70
15997;DHT22;8103;51.340;12.326;2022-10-17T12:52:25;38.20;35.40
15997;DHT22;8103;51.340;12.326;2022-10-17T12:58:02;39.40;33.80
15997;DHT22;8103;51.340;12.326;2022-10-17T13:00:48;38.80;34.40
15997;DHT22;8103;51.340;12.326;2022-10-17T13:03:42;38.50;35.20
15997;DHT22;8103;51.340;12.326;2022-10-17T13:06:20;39.30;34.40
15997;DHT22;8103;51.340;12.326;2022-10-17T13:08:57;40.10;33.20
15997;DHT22;8103;51.340;12.326;2022-10-17T13:11:31;40.20;32.60
15997;DHT22;8103;51.340;12.326;2022-10-17T13:14:02;40.20;32.70
15997;DHT22;8103;51.340;12.326;2022-10-17T13:16:37;40.10;32.80
15997;DHT22;8103;51.340;12.326;2022-10-17T13:19:14;40.20;32.90
15997;DHT22;8103;51.340;12.326;2022-10-17T13:24:39;40.90;32.00
15997;DHT22;8103;51.340;12.326;2022-10-17T13:29:55;40.90;31.20
15997;DHT22;8103;51.340;12.326;2022-10-17T13:32:26;40.80;31.40
15997;DHT22;8103;51.340;12.326;2022-10-17T13:35:12;40.70;31.30
15997;DHT22;8103;51.340;12.326;2022-10-17T13:37:42;40.90;31.40
15997;DHT22;8103;51.340;12.326;2022-10-17T13:40:27;41.60;30.90
15997;DHT22;8103;51.340;12.326;2022-10-17T13:43:19;41.40;30.90
15997;DHT22;8103;51.340;12.326;2022-10-17T13:45:53;40.60;31.60
15997;DHT22;8103;51.340;12.326;2022-10-17T13:48:27;39.50;32.80
15997;DHT22;8103;51.340;12.326;2022-10-17T13:50:58;38.50;34.20
15997;DHT22;8103;51.340;12.326;2022-10-17T13:53:38;38.10;35.10
15997;DHT22;8103;51.340;12.326;2022-10-17T13:56:22;38.10;35.40
15997;DHT22;8103;51.340;12.326;2022-10-17T13:58:56;38.10;36.10
15997;DHT22;8103;51.340;12.326;2022-10-17T14:01:27;38.30;35.70
15997;DHT22;8103;51.340;12.326;2022-10-17T14:03:55;38.80;34.40
15997;DHT22;8103;51.340;12.326;2022-10-17T14:06:40;39.10;33.40
15997;DHT22;8103;51.340;12.326;2022-10-17T14:09:26;39.10;32.50
15997;DHT22;8103;51.340;12.326;2022-10-17T14:12:03;38.90;32.60
15997;DHT22;8103;51.340;12.326;2022-10-17T14:14:37;38.70;32.30
15997;DHT22;8103;51.340;12.326;2022-10-17T14:17:27;38.60;32.80
15997;DHT22;8103;51.340;12.326;2022-10-17T14:20:01;39.10;31.00
15997;DHT22;8103;51.340;12.326;2022-10-17T14:22:50;39.10;31.50
15997;DHT22;8103;51.340;12.326;2022-10-17T14:25:39;39.40;30.90
15997;DHT22;8103;51.340;12.326;2022-10-17T14:30:48;38.80;31.10
15997;DHT22;8103;51.340;12.326;2022-10-17T14:33:28;37.30;32.70
15997;DHT22;8103;51.340;12.326;2022-10-17T14:35:57;35.30;35.60
15997;DHT22;8103;51.340;12.326;2022-10-17T14:38:28;33.30;38.60
15997;DHT22;8103;51.340;12.326;2022-10-17T14:40:59;31.80;41.40
15997;DHT22;8103;51.340;12.326;2022-10-17T14:43:54;30.60;43.50
15997;DHT22;8103;51.340;12.326;2022-10-17T14:46:35;29.60;45.50
15997;DHT22;8103;51.340;12.326;2022-10-17T14:49:13;28.90;47.10
15997;DHT22;8103;51.340;12.326;2022-10-17T14:54:51;27.90;49.30
15997;DHT22;8103;51.340;12.326;2022-10-17T14:59:58;27.30;50.90
15997;DHT22;8103;51.340;12.326;2022-10-17T15:02:27;27.10;51.60
15997;DHT22;8103;51.340;12.326;2022-10-17T15:04:55;26.90;52.20
15997;DHT22;8103;51.340;12.326;2022-10-17T15:07:23;26.80;52.70
15997;DHT22;8103;51.340;12.326;2022-10-17T15:09:51;26.60;53.20
15997;DHT22;8103;51.340;12.326;2022-10-17T15:12:24;26.50;53.80
15997;DHT22;8103;51.340;12.326;2022-10-17T15:14:52;26.30;54.20
15997;DHT22;8103;51.340;12.326;2022-10-17T15:17:28;26.20;54.90
15997;DHT22;8103;51.340;12.326;2022-10-17T15:19:57;26.10;55.30
15997;DHT22;8103;51.340;12.326;2022-10-17T15:22:24;26.00;55.60
15997;DHT22;8103;51.340;12.326;2022-10-17T15:24:52;25.90;55.70
15997;DHT22;8103;51.340;12.326;2022-10-17T15:27:21;25.80;55.90
15997;DHT22;8103;51.340;12.326;2022-10-17T15:29:50;25.70;56.20
15997;DHT22;8103;51.340;12.326;2022-10-17T15:32:18;25.60;56.40
15997;DHT22;8103;51.340;12.326;2022-10-17T15:34:45;25.50;56.70
15997;DHT22;8103;51.340;12.326;2022-10-17T15:37:20;25.40;57.00
15997;DHT22;8103;51.340;12.326;2022-10-17T15:39:50;25.30;57.20
15997;DHT22;8103;51.340;12.326;2022-10-17T15:42:21;25.20;57.50
15997;DHT22;8103;51.340;12.326;2022-10-17T15:44:53;25.20;57.90
15997;DHT22;8103;51.340;12.326;2022-10-17T15:47:26;25.00;58.20
15997;DHT22;8103;51.340;12.326;2022-10-17T15:49:56;25.00;59.40
15997;DHT22;8103;51.340;12.326;2022-10-17T15:52:23;24.90;59.10
15997;DHT22;8103;51.340;12.326;2022-10-17T15:54:51;24.80;59.40
15997;DHT22;8103;51.340;12.326;2022-10-17T15:57:25;24.70;60.00
15997;DHT22;8103;51.340;12.326;2022-10-17T15:59:58;24.50;60.30
15997;DHT22;8103;51.340;12.326;2022-10-17T16:02:26;24.40;61.00
15997;DHT22;8103;51.340;12.326;2022-10-17T16:04:53;24.30;61.50
15997;DHT22;8103;51.340;12.326;2022-10-17T16:07:20;24.20;62.20
15997;DHT22;8103;51.340;12.326;2022-10-17T16:09:47;24.10;62.50
15997;DHT22;8103;51.340;12.326;2022-10-17T16:12:22;24.00;62.80
15997;DHT22;8103;51.340;12.326;2022-10-17T16:14:53;23.80;63.30
15997;DHT22;8103;51.340;12.326;2022-10-17T16:17:21;23.70;64.00
15997;DHT22;8103;51.340;12.326;2022-10-17T16:19:47;23.60;65.00
15997;DHT22;8103;51.340;12.326;2022-10-17T16:22:33;23.50;65.50
15997;DHT22;8103;51.340;12.326;2022-10-17T16:25:05;23.40;66.20
15997;DHT22;8103;51.340;12.326;2022-10-17T16:27:36;23.20;66.70
15997;DHT22;8103;51.340;12.326;2022-10-17T16:30:06;23.10;67.20
15997;DHT22;8103;51.340;12.326;2022-10-17T16:32:33;23.00;68.00
15997;DHT22;8103;51.340;12.326;2022-10-17T16:35:00;22.90;68.90
15997;DHT22;8103;51.340;12.326;2022-10-17T16:37:27;22.80;69.20
15997;DHT22;8103;51.340;12.326;2022-10-17T16:39:54;22.60;69.80
15997;DHT22;8103;51.340;12.326;2022-10-17T16:42:21;22.50;70.80
15997;DHT22;8103;51.340;12.326;2022-10-17T16:44:49;22.40;71.30
15997;DHT22;8103;51.340;12.326;2022-10-17T16:47:17;22.30;72.30
15997;DHT22;8103;51.340;12.326;2022-10-17T16:49:45;22.20;73.20
15997;DHT22;8103;51.340;12.326;2022-10-17T16:52:12;22.10;74.00
15997;DHT22;8103;51.340;12.326;2022-10-17T16:54:39;22.00;74.80
15997;DHT22;8103;51.340;12.326;2022-10-17T16:57:06;21.80;75.50
15997;DHT22;8103;51.340;12.326;2022-10-17T16:59:33;21.80;76.20
15997;DHT22;8103;51.340;12.326;2022-10-17T17:02:00;21.70;77.10
15997;DHT22;8103;51.340;12.326;2022-10-17T17:04:27;21.60;78.70
15997;DHT22;8103;51.340;12.326;2022-10-17T17:06:54;21.50;79.60
15997;DHT22;8103;51.340;12.326;2022-10-17T17:09:21;21.40;80.50
15997;DHT22;8103;51.340;12.326;2022-10-17T17:11:48;21.30;82.40
15997;DHT22;8103;51.340;12.326;2022-10-17T17:14:15;21.20;82.80
15997;DHT22;8103;51.340;12.326;2022-10-17T17:16:42;21.10;84.90
15997;DHT22;8103;51.340;12.326;2022-10-17T17:19:11;21.00;87.50
15997;DHT22;8103;51.340;12.326;2022-10-17T17:21:41;20.90;88.80
15997;DHT22;8103;51.340;12.326;2022-10-17T17:24:17;20.80;89.70
15997;DHT22;8103;51.340;12.326;2022-10-17T17:26:53;20.70;91.00
15997;DHT22;8103;51.340;12.326;2022-10-17T17:29:22;20.60;91.50
15997;DHT22;8103;51.340;12.326;2022-10-17T17:31:50;20.50;91.80
15997;DHT22;8103;51.340;12.326;2022-10-17T17:34:18;20.40;92.20
15997;DHT22;8103;51.340;12.326;2022-10-17T17:36:45;20.30;92.70
15997;DHT22;8103;51.340;12.326;2022-10-17T17:39:14;20.20;93.00
15997;DHT22;8103;51.340;12.326;2022-10-17T17:41:42;20.10;93.40
15997;DHT22;8103;51.340;12.326;2022-10-17T17:44:12;20.10;93.60
15997;DHT22;8103;51.340;12.326;2022-10-17T17:46:41;20.10;93.60
15997;DHT22;8103;51.340;12.326;2022-10-17T17:49:10;20.20;93.20
15997;DHT22;8103;51.340;12.326;2022-10-17T17:51:37;20.40;93.30
15997;DHT22;8103;51.340;12.326;2022-10-17T17:54:07;20.50;92.60
15997;DHT22;8103;51.340;12.326;2022-10-17T17:56:37;20.60;92.40
15997;DHT22;8103;51.340;12.326;2022-10-17T17:59:05;20.60;92.30
15997;DHT22;8103;51.340;12.326;2022-10-17T18:01:33;20.60;92.50
15997;DHT22;8103;51.340;12.326;2022-10-17T18:04:06;20.50;92.80
15997;DHT22;8103;51.340;12.326;2022-10-17T18:06:35;20.40;92.80
15997;DHT22;8103;51.340;12.326;2022-10-17T18:09:04;20.30;92.90
15997;DHT22;8103;51.340;12.326;2022-10-17T18:11:32;20.20;93.20
15997;DHT22;8103;51.340;12.326;2022-10-17T18:14:01;20.10;93.70